createdAt,value
2018-11-11T00:00:00.683Z,49.99
2018-11-11T00:01:00.638Z,50.08
2018-11-11T00:02:00.587Z,50.08
2018-11-11T00:03:00.539Z,50.08
2018-11-11T00:04:00.492Z,49.99
2018-11-11T00:05:00.445Z,50.08
2018-11-11T00:06:00.396Z,49.99
2018-11-11T00:07:00.348Z,49.99
2018-11-11T00:08:00.301Z,50.08
2018-11-11T00:09:00.253Z,49.99
2018-11-11T00:10:00.209Z,50.08
2018-11-11T00:11:00.158Z,49.89
2018-11-11T00:12:00.114Z,49.89
2018-11-11T00:13:00.066Z,50.08
2018-11-11T00:14:00.016Z,49.99
2018-11-11T00:14:59.968Z,49.79
2018-11-11T00:15:59.920Z,49.99
2018-11-11T00:16:59.873Z,49.79
2018-11-11T00:17:59.827Z,49.89
2018-11-11T00:18:59.777Z,49.79
2018-11-11T00:19:59.730Z,49.69
2018-11-11T00:20:59.682Z,49.69
2018-11-11T00:21:59.635Z,49.79
2018-11-11T00:22:59.586Z,49.60
2018-11-11T00:23:59.539Z,49.89
2018-11-11T00:24:59.492Z,49.89
2018-11-11T00:25:59.445Z,49.60
2018-11-11T00:26:59.396Z,49.60
2018-11-11T00:27:59.348Z,49.69
2018-11-11T00:28:59.301Z,49.69
2018-11-11T00:29:59.253Z,49.60
2018-11-11T00:30:59.205Z,49.60
2018-11-11T00:31:59.158Z,49.60
2018-11-11T00:32:59.110Z,49.69
2018-11-11T00:33:59.062Z,49.69
2018-11-11T00:34:59.014Z,49.69
2018-11-11T00:35:58.967Z,49.60
2018-11-11T00:36:58.922Z,49.69
2018-11-11T00:37:58.871Z,49.60
2018-11-11T00:38:58.824Z,49.69
2018-11-11T00:39:58.778Z,49.60
2018-11-11T00:40:58.729Z,49.69
2018-11-11T00:41:58.684Z,49.60
2018-11-11T00:42:58.633Z,49.60
2018-11-11T00:43:58.585Z,49.69
2018-11-11T00:44:58.539Z,49.69
2018-11-11T00:45:58.490Z,49.60
2018-11-11T00:46:58.444Z,49.69
2018-11-11T00:47:58.396Z,49.99
2018-11-11T00:48:58.347Z,49.69
2018-11-11T00:49:58.300Z,49.69
2018-11-11T00:50:58.252Z,49.69
2018-11-11T00:51:58.204Z,49.69
2018-11-11T00:52:58.157Z,49.79
2018-11-11T00:53:58.109Z,49.69
2018-11-11T00:54:58.061Z,49.69
2018-11-11T00:55:58.014Z,49.79
2018-11-11T00:56:57.966Z,49.60
2018-11-11T00:57:57.918Z,49.89
2018-11-11T00:58:57.870Z,49.60
2018-11-11T00:59:57.823Z,49.69
2018-11-11T01:00:57.778Z,49.69
2018-11-11T01:01:57.727Z,49.69
2018-11-11T01:02:57.680Z,49.60
2018-11-11T01:03:57.633Z,49.60
2018-11-11T01:04:57.585Z,49.60
2018-11-11T01:05:57.537Z,49.60
2018-11-11T01:06:57.490Z,49.69
2018-11-11T01:07:57.442Z,49.69
2018-11-11T01:08:57.394Z,49.60
2018-11-11T01:09:57.346Z,49.60
2018-11-11T01:10:57.299Z,49.69
2018-11-11T01:11:57.273Z,49.60
2018-11-11T01:12:57.208Z,49.69
2018-11-11T01:13:57.155Z,49.60
2018-11-11T01:14:57.107Z,49.69
2018-11-11T01:15:57.060Z,49.60
2018-11-11T01:16:57.013Z,49.69
2018-11-11T01:17:56.965Z,49.60
2018-11-11T01:18:56.917Z,49.60
2018-11-11T01:19:56.870Z,49.69
2018-11-11T01:20:56.822Z,49.60
2018-11-11T01:21:56.774Z,49.79
2018-11-11T01:22:56.726Z,49.69
2018-11-11T01:23:56.680Z,49.79
2018-11-11T01:24:56.632Z,49.79
2018-11-11T01:25:56.585Z,49.89
2018-11-11T01:26:56.537Z,49.69
2018-11-11T01:27:56.490Z,49.69
2018-11-11T01:28:56.444Z,49.60
2018-11-11T01:29:56.393Z,49.41
2018-11-11T01:30:56.345Z,49.51
2018-11-11T01:31:56.298Z,49.41
2018-11-11T01:32:56.251Z,49.60
2018-11-11T01:33:56.353Z,49.41
2018-11-11T01:34:56.155Z,49.51
2018-11-11T01:35:56.108Z,49.51
2018-11-11T01:36:56.063Z,49.51
2018-11-11T01:37:56.012Z,49.79
2018-11-11T01:38:55.964Z,49.41
2018-11-11T01:39:55.917Z,49.60
2018-11-11T01:40:55.870Z,49.41
2018-11-11T01:41:55.821Z,49.41
2018-11-11T01:42:55.774Z,49.41
2018-11-11T01:43:55.726Z,49.41
2018-11-11T01:44:55.682Z,49.51
2018-11-11T01:45:55.631Z,49.51
2018-11-11T01:46:55.583Z,49.31
2018-11-11T01:47:55.535Z,49.51
2018-11-11T01:48:55.489Z,49.69
2018-11-11T01:49:55.440Z,49.51
2018-11-11T01:50:55.392Z,49.69
2018-11-11T01:51:55.345Z,49.51
2018-11-11T01:52:55.297Z,49.69
2018-11-11T01:53:55.252Z,49.60
2018-11-11T01:54:55.202Z,49.51
2018-11-11T01:55:55.154Z,49.31
2018-11-11T01:56:55.107Z,49.51
2018-11-11T01:57:55.058Z,49.51
2018-11-11T01:58:55.013Z,49.41
2018-11-11T01:59:54.964Z,49.69
2018-11-11T02:00:54.916Z,49.60
2018-11-11T02:01:54.870Z,49.51
2018-11-11T02:02:54.820Z,49.69
2018-11-11T02:03:54.773Z,49.51
2018-11-11T02:04:54.728Z,49.60
2018-11-11T02:05:54.681Z,49.69
2018-11-11T02:06:54.630Z,49.69
2018-11-11T02:07:54.582Z,49.51
2018-11-11T02:08:54.536Z,49.60
2018-11-11T02:09:54.667Z,49.60
2018-11-11T02:10:54.440Z,49.51
2018-11-11T02:11:54.392Z,49.51
2018-11-11T02:12:54.345Z,49.60
2018-11-11T02:13:54.296Z,49.51
2018-11-11T02:14:54.249Z,49.41
2018-11-11T02:15:54.201Z,49.31
2018-11-11T02:16:54.154Z,49.51
2018-11-11T02:17:54.422Z,49.41
2018-11-11T02:18:54.375Z,49.51
2018-11-11T02:19:54.326Z,49.51
2018-11-11T02:20:53.983Z,49.51
2018-11-11T02:21:53.918Z,49.41
2018-11-11T02:22:53.868Z,49.31
2018-11-11T02:23:53.819Z,49.60
2018-11-11T02:24:53.777Z,49.51
2018-11-11T02:25:53.727Z,49.41
2018-11-11T02:26:53.677Z,49.31
2018-11-11T02:27:53.630Z,49.31
2018-11-11T02:28:53.582Z,49.51
2018-11-11T02:29:53.534Z,49.41
2018-11-11T02:30:53.487Z,49.31
2018-11-11T02:31:53.440Z,49.41
2018-11-11T02:32:53.393Z,49.41
2018-11-11T02:33:53.344Z,49.51
2018-11-11T02:34:53.297Z,49.31
2018-11-11T02:35:53.249Z,49.60
2018-11-11T02:36:53.206Z,49.31
2018-11-11T02:37:53.154Z,49.51
2018-11-11T02:38:53.106Z,49.60
2018-11-11T02:39:53.059Z,49.31
2018-11-11T02:40:53.011Z,49.41
2018-11-11T02:41:52.963Z,49.69
2018-11-11T02:42:52.965Z,49.51
2018-11-11T02:43:52.868Z,49.41
2018-11-11T02:44:52.828Z,49.51
2018-11-11T02:45:52.772Z,49.51
2018-11-11T02:46:52.725Z,49.69
2018-11-11T02:47:52.727Z,49.51
2018-11-11T02:48:52.637Z,49.41
2018-11-11T02:49:52.583Z,49.51
2018-11-11T02:50:52.534Z,49.69
2018-11-11T02:51:52.494Z,49.60
2018-11-11T02:52:52.439Z,49.69
2018-11-11T02:53:52.391Z,49.60
2018-11-11T02:54:52.345Z,49.51
2018-11-11T02:55:52.296Z,49.31
2018-11-11T02:56:52.249Z,49.51
2018-11-11T02:57:52.252Z,49.41
2018-11-11T02:58:52.160Z,49.41
2018-11-11T02:59:52.106Z,49.31
2018-11-11T03:00:52.059Z,49.41
2018-11-11T03:01:52.010Z,49.51
2018-11-11T03:02:51.963Z,49.31
2018-11-11T03:03:51.915Z,49.31
2018-11-11T03:04:51.868Z,49.41
2018-11-11T03:05:51.924Z,49.31
2018-11-11T03:06:51.772Z,49.51
2018-11-11T03:07:51.724Z,49.41
2018-11-11T03:08:51.677Z,49.41
2018-11-11T03:09:51.630Z,49.41
2018-11-11T03:10:51.581Z,49.41
2018-11-11T03:11:51.534Z,49.41
2018-11-11T03:12:51.522Z,49.41
2018-11-11T03:13:51.438Z,49.41
2018-11-11T03:14:51.391Z,49.51
2018-11-11T03:15:51.343Z,49.41
2018-11-11T03:16:51.296Z,49.69
2018-11-11T03:17:51.250Z,49.41
2018-11-11T03:18:51.200Z,49.41
2018-11-11T03:19:51.153Z,49.41
2018-11-11T03:20:51.107Z,49.41
2018-11-11T03:21:51.057Z,49.41
2018-11-11T03:22:51.011Z,49.41
2018-11-11T03:23:50.962Z,49.41
2018-11-11T03:24:50.915Z,49.31
2018-11-11T03:25:50.866Z,49.51
2018-11-11T03:26:50.819Z,49.31
2018-11-11T03:27:50.771Z,49.69
2018-11-11T03:28:50.724Z,49.51
2018-11-11T03:29:50.676Z,49.31
2018-11-11T03:30:50.630Z,49.69
2018-11-11T03:31:50.590Z,49.31
2018-11-11T03:32:50.533Z,49.41
2018-11-11T03:33:50.491Z,49.69
2018-11-11T03:34:50.437Z,49.51
2018-11-11T03:35:50.389Z,49.31
2018-11-11T03:36:50.345Z,49.69
2018-11-11T03:37:50.295Z,49.60
2018-11-11T03:38:50.247Z,49.69
2018-11-11T03:39:50.253Z,49.69
2018-11-11T03:40:50.152Z,49.51
2018-11-11T03:41:50.104Z,49.69
2018-11-11T03:42:50.058Z,49.69
2018-11-11T03:43:50.009Z,49.69
2018-11-11T03:44:49.964Z,49.60
2018-11-11T03:45:49.916Z,49.51
2018-11-11T03:46:50.182Z,49.51
2018-11-11T03:47:49.819Z,49.69
2018-11-11T03:48:49.771Z,49.41
2018-11-11T03:49:49.722Z,49.51
2018-11-11T03:50:49.675Z,49.31
2018-11-11T03:51:49.627Z,49.31
2018-11-11T03:52:49.589Z,49.41
2018-11-11T03:53:49.534Z,49.41
2018-11-11T03:54:49.487Z,49.51
2018-11-11T03:55:49.437Z,49.60
2018-11-11T03:56:49.394Z,49.60
2018-11-11T03:57:49.349Z,49.60
2018-11-11T03:58:49.375Z,49.69
2018-11-11T03:59:49.247Z,49.60
2018-11-11T04:00:49.203Z,49.60
2018-11-11T04:01:49.154Z,49.69
2018-11-11T04:02:49.104Z,49.69
2018-11-11T04:03:49.108Z,49.60
2018-11-11T04:04:49.009Z,49.69
2018-11-11T04:05:48.964Z,49.60
2018-11-11T04:06:48.913Z,49.60
2018-11-11T04:07:48.864Z,49.69
2018-11-11T04:08:48.818Z,49.60
2018-11-11T04:09:48.771Z,49.69
2018-11-11T04:10:48.723Z,49.69
2018-11-11T04:11:48.675Z,49.60
2018-11-11T04:12:48.627Z,49.79
2018-11-11T04:13:48.579Z,49.69
2018-11-11T04:14:48.531Z,49.69
2018-11-11T04:15:48.485Z,49.69
2018-11-11T04:16:48.437Z,49.69
2018-11-11T04:17:48.392Z,49.69
2018-11-11T04:18:48.341Z,49.60
2018-11-11T04:19:48.293Z,49.60
2018-11-11T04:20:48.246Z,49.60
2018-11-11T04:21:48.198Z,49.69
2018-11-11T04:22:48.151Z,49.60
2018-11-11T04:23:48.103Z,49.69
2018-11-11T04:24:48.056Z,49.60
2018-11-11T04:25:48.007Z,49.60
2018-11-11T04:26:47.962Z,49.69
2018-11-11T04:27:47.912Z,49.69
2018-11-11T04:28:47.865Z,49.69
2018-11-11T04:29:47.820Z,49.51
2018-11-11T04:30:47.769Z,49.69
2018-11-11T04:31:47.722Z,49.69
2018-11-11T04:32:47.674Z,49.69
2018-11-11T04:33:47.627Z,49.60
2018-11-11T04:34:47.578Z,49.60
2018-11-11T04:35:47.538Z,49.69
2018-11-11T04:36:47.483Z,49.69
2018-11-11T04:37:47.435Z,49.60
2018-11-11T04:38:47.397Z,49.69
2018-11-11T04:39:47.340Z,49.69
2018-11-11T04:40:47.295Z,49.69
2018-11-11T04:41:47.244Z,49.60
2018-11-11T04:42:47.197Z,49.69
2018-11-11T04:43:47.150Z,49.69
2018-11-11T04:44:47.111Z,49.69
2018-11-11T04:45:47.054Z,49.69
2018-11-11T04:46:47.006Z,49.69
2018-11-11T04:47:46.967Z,49.69
2018-11-11T04:48:46.912Z,49.69
2018-11-11T04:49:46.863Z,49.69
2018-11-11T04:50:46.816Z,49.69
2018-11-11T04:51:46.769Z,49.69
2018-11-11T04:52:46.733Z,49.69
2018-11-11T04:53:46.672Z,49.69
2018-11-11T04:54:46.626Z,49.69
2018-11-11T04:55:46.628Z,49.69
2018-11-11T04:56:46.531Z,49.79
2018-11-11T04:57:46.481Z,49.79
2018-11-11T04:58:46.435Z,49.79
2018-11-11T04:59:46.388Z,49.69
2018-11-11T05:00:46.340Z,49.69
2018-11-11T05:01:46.292Z,49.79
2018-11-11T05:02:46.244Z,49.69
2018-11-11T05:03:46.196Z,49.79
2018-11-11T05:04:46.368Z,49.69
2018-11-11T05:05:46.101Z,49.79
2018-11-11T05:06:46.053Z,49.69
2018-11-11T05:07:46.007Z,49.51
2018-11-11T05:08:45.959Z,49.69
2018-11-11T05:09:45.911Z,49.89
2018-11-11T05:10:45.863Z,49.69
2018-11-11T05:11:45.815Z,49.69
2018-11-11T05:12:45.819Z,49.69
2018-11-11T05:13:45.721Z,49.79
2018-11-11T05:14:45.675Z,49.69
2018-11-11T05:15:45.625Z,49.69
2018-11-11T05:16:45.578Z,49.60
2018-11-11T05:17:45.533Z,49.89
2018-11-11T05:18:45.485Z,49.69
2018-11-11T05:19:45.436Z,49.69
2018-11-11T05:20:45.425Z,49.79
2018-11-11T05:21:45.410Z,49.60
2018-11-11T05:22:45.298Z,49.69
2018-11-11T05:23:45.247Z,49.79
2018-11-11T05:24:45.196Z,49.60
2018-11-11T05:25:45.147Z,49.79
2018-11-11T05:26:45.102Z,49.79
2018-11-11T05:27:45.052Z,49.79
2018-11-11T05:28:45.005Z,49.69
2018-11-11T05:29:44.959Z,49.79
2018-11-11T05:30:44.936Z,49.69
2018-11-11T05:31:44.861Z,49.69
2018-11-11T05:32:44.814Z,49.79
2018-11-11T05:33:44.765Z,49.79
2018-11-11T05:34:44.718Z,49.99
2018-11-11T05:35:44.672Z,49.60
2018-11-11T05:36:44.623Z,49.31
2018-11-11T05:37:44.575Z,49.60
2018-11-11T05:38:44.528Z,49.31
2018-11-11T05:39:44.479Z,49.79
2018-11-11T05:40:44.433Z,49.41
2018-11-11T05:41:44.386Z,49.51
2018-11-11T05:42:44.336Z,49.31
2018-11-11T05:43:44.289Z,49.31
2018-11-11T05:44:44.244Z,49.41
2018-11-11T05:45:44.192Z,49.31
2018-11-11T05:46:44.146Z,49.31
2018-11-11T05:47:44.099Z,49.51
2018-11-11T05:48:44.051Z,49.41
2018-11-11T05:49:44.002Z,49.02
2018-11-11T05:50:43.953Z,49.41
2018-11-11T05:51:43.907Z,49.31
2018-11-11T05:52:43.859Z,49.31
2018-11-11T05:53:43.811Z,49.02
2018-11-11T05:54:43.765Z,49.41
2018-11-11T05:55:43.716Z,49.02
2018-11-11T05:56:43.669Z,49.51
2018-11-11T05:57:43.620Z,49.12
2018-11-11T05:58:43.572Z,49.51
2018-11-11T05:59:43.526Z,49.02
2018-11-11T06:00:43.478Z,49.02
2018-11-11T06:01:43.429Z,49.12
2018-11-11T06:02:43.382Z,49.12
2018-11-11T06:03:43.336Z,49.12
2018-11-11T06:04:43.287Z,49.12
2018-11-11T06:05:43.238Z,49.12
2018-11-11T06:06:43.192Z,49.12
2018-11-11T06:07:43.144Z,49.02
2018-11-11T06:08:43.096Z,49.02
2018-11-11T06:09:43.047Z,49.22
2018-11-11T06:10:43.001Z,49.22
2018-11-11T06:11:42.953Z,49.31
2018-11-11T06:12:42.905Z,49.12
2018-11-11T06:13:42.856Z,49.12
2018-11-11T06:14:42.809Z,49.22
2018-11-11T06:15:42.762Z,49.12
2018-11-11T06:16:42.715Z,49.22
2018-11-11T06:17:42.666Z,49.12
2018-11-11T06:18:42.619Z,49.22
2018-11-11T06:19:42.571Z,49.22
2018-11-11T06:20:42.574Z,49.22
2018-11-11T06:21:42.478Z,49.22
2018-11-11T06:22:42.428Z,49.22
2018-11-11T06:23:42.380Z,49.12
2018-11-11T06:24:42.333Z,49.12
2018-11-11T06:25:42.284Z,49.22
2018-11-11T06:26:42.237Z,49.22
2018-11-11T06:27:42.193Z,49.12
2018-11-11T06:28:42.142Z,49.12
2018-11-11T06:29:42.094Z,49.22
2018-11-11T06:30:42.047Z,49.12
2018-11-11T06:31:41.999Z,48.93
2018-11-11T06:32:41.954Z,49.22
2018-11-11T06:33:41.903Z,49.02
2018-11-11T06:34:41.856Z,49.12
2018-11-11T06:35:41.808Z,49.12
2018-11-11T06:36:41.766Z,49.22
2018-11-11T06:37:41.728Z,48.93
2018-11-11T06:38:41.665Z,49.02
2018-11-11T06:39:41.618Z,48.93
2018-11-11T06:40:41.570Z,48.74
2018-11-11T06:41:41.526Z,48.83
2018-11-11T06:42:41.475Z,48.74
2018-11-11T06:43:41.476Z,49.02
2018-11-11T06:44:41.379Z,48.83
2018-11-11T06:45:41.331Z,48.74
2018-11-11T06:46:41.288Z,49.02
2018-11-11T06:47:41.236Z,49.22
2018-11-11T06:48:41.189Z,48.83
2018-11-11T06:49:41.140Z,48.74
2018-11-11T06:50:41.093Z,48.74
2018-11-11T06:51:41.046Z,48.74
2018-11-11T06:52:41.001Z,48.83
2018-11-11T06:53:40.953Z,49.02
2018-11-11T06:54:40.903Z,48.93
2018-11-11T06:55:40.854Z,49.02
2018-11-11T06:56:40.807Z,48.93
2018-11-11T06:57:40.759Z,49.12
2018-11-11T06:58:40.714Z,49.02
2018-11-11T06:59:40.664Z,48.93
2018-11-11T07:00:40.616Z,48.93
2018-11-11T07:01:40.885Z,48.83
2018-11-11T07:02:40.520Z,49.02
2018-11-11T07:03:40.473Z,48.83
2018-11-11T07:04:40.426Z,48.93
2018-11-11T07:05:40.383Z,48.93
2018-11-11T07:06:40.330Z,49.02
2018-11-11T07:07:40.385Z,48.93
2018-11-11T07:08:40.234Z,48.93
2018-11-11T07:09:40.187Z,48.93
2018-11-11T07:10:40.140Z,48.83
2018-11-11T07:11:40.094Z,48.93
2018-11-11T07:12:40.045Z,48.93
2018-11-11T07:13:39.996Z,49.02
2018-11-11T07:14:39.949Z,48.93
2018-11-11T07:15:39.901Z,48.83
2018-11-11T07:16:39.853Z,48.93
2018-11-11T07:17:39.805Z,48.93
2018-11-11T07:18:39.759Z,48.74
2018-11-11T07:19:39.710Z,48.83
2018-11-11T07:20:39.663Z,48.93
2018-11-11T07:21:39.614Z,48.93
2018-11-11T07:22:39.567Z,48.93
2018-11-11T07:23:39.536Z,48.74
2018-11-11T07:24:39.472Z,49.12
2018-11-11T07:25:39.424Z,48.93
2018-11-11T07:26:39.379Z,48.93
2018-11-11T07:27:39.329Z,48.83
2018-11-11T07:28:39.283Z,48.83
2018-11-11T07:29:39.233Z,48.64
2018-11-11T07:30:39.190Z,48.83
2018-11-11T07:31:39.139Z,48.83
2018-11-11T07:32:39.092Z,48.83
2018-11-11T07:33:39.042Z,48.83
2018-11-11T07:34:38.995Z,48.93
2018-11-11T07:35:38.951Z,48.93
2018-11-11T07:36:38.900Z,48.83
2018-11-11T07:37:38.854Z,48.83
2018-11-11T07:38:38.804Z,48.74
2018-11-11T07:39:38.758Z,48.74
2018-11-11T07:40:38.709Z,48.83
2018-11-11T07:41:38.661Z,48.74
2018-11-11T07:42:38.613Z,48.74
2018-11-11T07:43:38.566Z,48.64
2018-11-11T07:44:38.521Z,48.83
2018-11-11T07:45:38.472Z,48.83
2018-11-11T07:46:38.423Z,48.54
2018-11-11T07:47:38.424Z,48.83
2018-11-11T07:48:38.327Z,49.12
2018-11-11T07:49:38.281Z,49.12
2018-11-11T07:50:38.232Z,48.83
2018-11-11T07:51:38.188Z,49.02
2018-11-11T07:52:38.136Z,49.02
2018-11-11T07:53:38.089Z,48.54
2018-11-11T07:54:38.041Z,49.02
2018-11-11T07:55:37.995Z,48.74
2018-11-11T07:56:37.947Z,48.83
2018-11-11T07:57:37.897Z,49.02
2018-11-11T07:58:37.907Z,49.02
2018-11-11T07:59:37.804Z,49.02
2018-11-11T08:00:37.756Z,49.02
2018-11-11T08:01:37.781Z,49.02
2018-11-11T08:02:37.660Z,48.64
2018-11-11T08:03:37.612Z,48.64
2018-11-11T08:04:37.567Z,48.64
2018-11-11T08:05:37.516Z,48.83
2018-11-11T08:06:37.469Z,48.83
2018-11-11T08:07:37.421Z,48.54
2018-11-11T08:08:37.374Z,48.54
2018-11-11T08:09:37.326Z,48.83
2018-11-11T08:10:37.278Z,48.54
2018-11-11T08:11:37.231Z,48.83
2018-11-11T08:12:37.183Z,48.83
2018-11-11T08:13:37.135Z,48.74
2018-11-11T08:14:37.125Z,48.74
2018-11-11T08:15:37.040Z,48.83
2018-11-11T08:16:37.025Z,48.74
2018-11-11T08:17:36.944Z,48.74
2018-11-11T08:18:36.897Z,48.74
2018-11-11T08:19:36.848Z,48.54
2018-11-11T08:20:36.801Z,48.93
2018-11-11T08:21:36.753Z,48.64
2018-11-11T08:22:36.706Z,48.74
2018-11-11T08:23:36.658Z,48.64
2018-11-11T08:24:36.611Z,48.64
2018-11-11T08:25:36.650Z,48.64
2018-11-11T08:26:36.515Z,48.64
2018-11-11T08:27:36.467Z,48.83
2018-11-11T08:28:36.423Z,48.83
2018-11-11T08:29:36.373Z,48.74
2018-11-11T08:30:36.324Z,48.74
2018-11-11T08:31:36.275Z,48.83
2018-11-11T08:32:36.234Z,48.74
2018-11-11T08:33:36.181Z,48.64
2018-11-11T08:34:36.133Z,48.74
2018-11-11T08:35:36.086Z,48.64
2018-11-11T08:36:36.039Z,48.83
2018-11-11T08:37:35.990Z,48.64
2018-11-11T08:38:35.943Z,48.83
2018-11-11T08:39:35.897Z,48.74
2018-11-11T08:40:35.898Z,48.74
2018-11-11T08:41:35.800Z,48.74
2018-11-11T08:42:35.752Z,48.83
2018-11-11T08:43:35.704Z,48.74
2018-11-11T08:44:35.657Z,48.83
2018-11-11T08:45:35.609Z,48.74
2018-11-11T08:46:35.561Z,48.74
2018-11-11T08:47:35.514Z,48.74
2018-11-11T08:48:35.466Z,48.83
2018-11-11T08:49:35.419Z,48.64
2018-11-11T08:50:35.370Z,48.83
2018-11-11T08:51:35.324Z,48.64
2018-11-11T08:52:35.275Z,48.54
2018-11-11T08:53:35.228Z,48.74
2018-11-11T08:54:35.180Z,48.74
2018-11-11T08:55:35.132Z,48.54
2018-11-11T08:56:35.085Z,48.45
2018-11-11T08:57:35.042Z,48.35
2018-11-11T08:58:34.990Z,48.64
2018-11-11T08:59:34.943Z,48.35
2018-11-11T09:00:34.895Z,48.64
2018-11-11T09:01:34.850Z,48.35
2018-11-11T09:02:34.799Z,48.54
2018-11-11T09:03:34.752Z,48.54
2018-11-11T09:04:34.707Z,48.64
2018-11-11T09:05:34.656Z,48.54
2018-11-11T09:06:34.609Z,48.54
2018-11-11T09:07:34.561Z,48.64
2018-11-11T09:08:34.517Z,48.45
2018-11-11T09:09:34.465Z,48.54
2018-11-11T09:10:34.419Z,48.45
2018-11-11T09:11:34.452Z,48.54
2018-11-11T09:12:34.325Z,48.45
2018-11-11T09:13:34.279Z,48.74
2018-11-11T09:14:34.228Z,48.45
2018-11-11T09:15:34.183Z,48.45
2018-11-11T09:16:34.132Z,48.45
2018-11-11T09:17:34.206Z,48.45
2018-11-11T09:18:34.037Z,48.64
2018-11-11T09:19:33.989Z,48.45
2018-11-11T09:20:33.942Z,48.74
2018-11-11T09:21:33.979Z,48.64
2018-11-11T09:22:33.847Z,48.45
2018-11-11T09:23:33.812Z,48.54
2018-11-11T09:24:33.752Z,48.74
2018-11-11T09:25:33.710Z,48.54
2018-11-11T09:26:33.657Z,48.54
2018-11-11T09:27:33.609Z,48.45
2018-11-11T09:28:33.566Z,48.45
2018-11-11T09:29:33.531Z,48.64
2018-11-11T09:30:33.597Z,48.54
2018-11-11T09:31:33.418Z,48.54
2018-11-11T09:32:33.371Z,48.54
2018-11-11T09:33:33.322Z,48.54
2018-11-11T09:34:33.281Z,48.74
2018-11-11T09:35:33.228Z,48.64
2018-11-11T09:36:33.180Z,48.64
2018-11-11T09:37:33.132Z,48.54
2018-11-11T09:38:33.086Z,48.54
2018-11-11T09:39:33.038Z,48.64
2018-11-11T09:40:32.992Z,48.74
2018-11-11T09:41:32.942Z,48.54
2018-11-11T09:42:32.949Z,48.64
2018-11-11T09:43:32.850Z,48.54
2018-11-11T09:44:32.800Z,48.54
2018-11-11T09:45:32.752Z,48.64
2018-11-11T09:46:32.704Z,48.54
2018-11-11T09:47:32.656Z,48.45
2018-11-11T09:48:32.611Z,48.45
2018-11-11T09:49:32.561Z,48.54
2018-11-11T09:50:32.514Z,48.54
2018-11-11T09:51:32.466Z,48.54
2018-11-11T09:52:32.445Z,48.54
2018-11-11T09:53:32.371Z,48.54
2018-11-11T09:54:32.323Z,48.64
2018-11-11T09:55:32.276Z,48.45
2018-11-11T09:56:32.242Z,48.45
2018-11-11T09:57:32.180Z,48.54
2018-11-11T09:58:32.195Z,48.54
2018-11-11T09:59:32.088Z,48.45
2018-11-11T10:00:32.039Z,48.45
2018-11-11T10:01:31.990Z,48.64
2018-11-11T10:02:31.943Z,48.64
2018-11-11T10:03:31.898Z,48.45
2018-11-11T10:04:31.848Z,48.54
2018-11-11T10:05:31.800Z,48.64
2018-11-11T10:06:31.843Z,48.64
2018-11-11T10:07:31.705Z,48.45
2018-11-11T10:08:31.657Z,48.64
2018-11-11T10:09:31.609Z,48.45
2018-11-11T10:10:31.569Z,48.54
2018-11-11T10:11:31.514Z,48.54
2018-11-11T10:12:31.557Z,48.64
2018-11-11T10:13:31.419Z,48.45
2018-11-11T10:14:31.374Z,48.74
2018-11-11T10:15:31.324Z,48.54
2018-11-11T10:16:31.276Z,48.64
2018-11-11T10:17:31.228Z,48.64
2018-11-11T10:18:31.180Z,48.45
2018-11-11T10:19:31.134Z,48.64
2018-11-11T10:20:31.105Z,48.64
2018-11-11T10:21:31.042Z,48.54
2018-11-11T10:22:30.990Z,48.74
2018-11-11T10:23:30.943Z,48.54
2018-11-11T10:24:30.895Z,48.64
2018-11-11T10:25:30.848Z,48.54
2018-11-11T10:26:30.800Z,48.74
2018-11-11T10:27:30.830Z,48.64
2018-11-11T10:28:30.705Z,48.74
2018-11-11T10:29:30.765Z,48.64
2018-11-11T10:30:30.610Z,48.64
2018-11-11T10:31:30.562Z,48.45
2018-11-11T10:32:30.515Z,48.64
2018-11-11T10:33:30.521Z,48.54
2018-11-11T10:34:30.419Z,48.64
2018-11-11T10:35:30.371Z,48.54
2018-11-11T10:36:30.324Z,48.35
2018-11-11T10:37:30.389Z,48.64
2018-11-11T10:38:30.229Z,48.64
2018-11-11T10:39:30.185Z,48.54
2018-11-11T10:40:30.134Z,48.54
2018-11-11T10:41:30.092Z,48.64
2018-11-11T10:42:30.041Z,48.35
2018-11-11T10:43:29.994Z,48.54
2018-11-11T10:44:30.010Z,48.35
2018-11-11T10:45:29.895Z,48.45
2018-11-11T10:46:29.848Z,48.64
2018-11-11T10:47:29.801Z,48.54
2018-11-11T10:48:29.753Z,48.54
2018-11-11T10:49:29.705Z,48.54
2018-11-11T10:50:29.657Z,48.93
2018-11-11T10:51:29.610Z,48.64
2018-11-11T10:52:29.562Z,48.74
2018-11-11T10:53:29.518Z,48.64
2018-11-11T10:54:29.637Z,48.74
2018-11-11T10:55:29.420Z,48.74
2018-11-11T10:56:29.372Z,48.64
2018-11-11T10:57:29.323Z,48.93
2018-11-11T10:58:29.283Z,48.54
2018-11-11T10:59:29.230Z,48.64
2018-11-11T11:00:29.182Z,48.93
2018-11-11T11:01:29.137Z,48.54
2018-11-11T11:02:29.087Z,48.54
2018-11-11T11:03:29.039Z,48.54
2018-11-11T11:04:29.000Z,48.64
2018-11-11T11:05:28.949Z,48.54
2018-11-11T11:06:28.895Z,48.54
2018-11-11T11:07:28.847Z,48.74
2018-11-11T11:08:28.800Z,48.45
2018-11-11T11:09:28.752Z,48.64
2018-11-11T11:10:28.705Z,48.74
2018-11-11T11:11:28.658Z,48.83
2018-11-11T11:12:28.610Z,48.74
2018-11-11T11:13:28.692Z,48.64
2018-11-11T11:14:28.514Z,48.64
2018-11-11T11:15:28.468Z,48.74
2018-11-11T11:16:28.426Z,48.74
2018-11-11T11:17:28.425Z,48.74
2018-11-11T11:18:28.326Z,48.74
2018-11-11T11:19:28.276Z,48.83
2018-11-11T11:20:28.243Z,48.64
2018-11-11T11:21:28.180Z,48.64
2018-11-11T11:22:28.142Z,48.74
2018-11-11T11:23:28.085Z,48.64
2018-11-11T11:24:28.038Z,48.64
2018-11-11T11:25:28.033Z,48.83
2018-11-11T11:26:27.949Z,48.74
2018-11-11T11:27:27.993Z,48.74
2018-11-11T11:28:27.848Z,48.74
2018-11-11T11:29:27.800Z,48.74
2018-11-11T11:30:27.752Z,48.74
2018-11-11T11:31:27.737Z,48.83
2018-11-11T11:32:27.658Z,48.74
2018-11-11T11:33:27.609Z,48.74
2018-11-11T11:34:27.561Z,48.64
2018-11-11T11:35:27.567Z,48.74
2018-11-11T11:36:27.467Z,48.74
2018-11-11T11:37:27.420Z,48.74
2018-11-11T11:38:27.498Z,48.64
2018-11-11T11:39:27.324Z,48.74
2018-11-11T11:40:27.280Z,48.64
2018-11-11T11:41:27.341Z,48.54
2018-11-11T11:42:27.180Z,48.74
2018-11-11T11:43:27.132Z,48.64
2018-11-11T11:44:27.085Z,48.74
2018-11-11T11:45:27.037Z,48.74
2018-11-11T11:46:26.991Z,48.54
2018-11-11T11:47:27.018Z,48.83
2018-11-11T11:48:26.897Z,48.54
2018-11-11T11:49:26.846Z,48.74
2018-11-11T11:50:26.922Z,48.64
2018-11-11T11:51:26.751Z,48.74
2018-11-11T11:52:26.822Z,48.83
2018-11-11T11:53:26.656Z,48.64
2018-11-11T11:54:26.608Z,48.74
2018-11-11T11:55:26.561Z,48.83
2018-11-11T11:56:26.516Z,48.74
2018-11-11T11:57:26.465Z,48.74
2018-11-11T11:58:26.417Z,48.74
2018-11-11T11:59:26.375Z,48.74
2018-11-11T12:00:26.323Z,48.74
2018-11-11T12:01:26.326Z,48.74
2018-11-11T12:02:26.228Z,48.74
2018-11-11T12:03:26.179Z,48.74
2018-11-11T12:04:26.132Z,48.64
2018-11-11T12:05:26.084Z,48.83
2018-11-11T12:06:26.039Z,48.64
2018-11-11T12:07:25.991Z,48.83
2018-11-11T12:08:25.961Z,48.74
2018-11-11T12:09:25.893Z,48.54
2018-11-11T12:10:25.846Z,48.64
2018-11-11T12:11:25.799Z,48.64
2018-11-11T12:12:25.751Z,48.74
2018-11-11T12:13:25.703Z,48.64
2018-11-11T12:14:25.655Z,48.74
2018-11-11T12:15:25.608Z,48.64
2018-11-11T12:16:25.609Z,48.74
2018-11-11T12:17:25.512Z,48.64
2018-11-11T12:18:25.465Z,48.74
2018-11-11T12:19:25.417Z,48.74
2018-11-11T12:20:25.374Z,48.74
2018-11-11T12:21:25.322Z,48.74
2018-11-11T12:22:25.274Z,48.74
2018-11-11T12:23:25.311Z,48.64
2018-11-11T12:24:25.179Z,48.74
2018-11-11T12:25:25.131Z,48.54
2018-11-11T12:26:25.084Z,48.74
2018-11-11T12:27:25.036Z,48.64
2018-11-11T12:28:24.989Z,48.54
2018-11-11T12:29:24.941Z,48.74
2018-11-11T12:30:25.028Z,48.64
2018-11-11T12:31:24.846Z,48.54
2018-11-11T12:32:24.798Z,48.64
2018-11-11T12:33:24.750Z,48.74
2018-11-11T12:34:24.702Z,48.54
2018-11-11T12:35:24.656Z,48.74
2018-11-11T12:36:24.611Z,48.64
2018-11-11T12:37:24.559Z,48.74
2018-11-11T12:38:24.513Z,48.74
2018-11-11T12:39:24.487Z,48.64
2018-11-11T12:40:24.534Z,48.64
2018-11-11T12:41:24.368Z,48.64
2018-11-11T12:42:24.321Z,48.64
2018-11-11T12:43:24.276Z,48.64
2018-11-11T12:44:24.227Z,48.74
2018-11-11T12:45:24.178Z,48.74
2018-11-11T12:46:24.131Z,48.64
2018-11-11T12:47:24.085Z,48.83
2018-11-11T12:48:24.039Z,48.83
2018-11-11T12:49:23.988Z,48.74
2018-11-11T12:50:24.044Z,48.74
2018-11-11T12:51:23.893Z,48.54